HISTORICAL SENSOR DATA

Sensor Data Report

DB LIVE
CURRENT TIME--:--:--
DEVICE NETWORK Gateway Status
13 ESP · realtime ~1s · history 60s
Weather WS-MOD-01
ONLINE
Actuator ACT-MOD-01
OFFLINE
Mainboard L3 MB-L3-01
ONLINE
Mainboard L5 MB-L5-01
ONLINE
Remote AC AC-REMOTE-01
ONLINE
PZEM L3-01 PWR-L3-01
OFFLINE
PZEM L3-02 PWR-L3-02
OFFLINE
PZEM L3-03 PWR-L3-03
OFFLINE
PZEM L3-04 PWR-L3-04
OFFLINE
PZEM L5-01 PWR-L5-01
ONLINE
PZEM L5-02 PWR-L5-02
ONLINE
PZEM L5-03 PWR-L5-03
OFFLINE
PZEM L5-04 PWR-L5-04
OFFLINE
REPORT FILTER

Periode & Sensor

DATABASE HISTORY
RESET
QUICK RANGE Hari ini 7 hari 30 hari
PERIODE01 Sep 2026sampai 07 Sep 2026
TOTAL DATA92,461sensor readings
MINIMUM-0.50sesuai filter
AVERAGE71.67sesuai filter
MAXIMUM32,564.20sesuai filter
REPORT RESULT

Data Sensor

01/09/2026 — 07/09/2026 EXPORT CSV
NOTANGGALWAKTUDEVICECHANNELSENSORVALUEUNIT
701 07/09/2026 05:54:00 MB-L3-01Mainboard Lantai 3 L3-AI-06 Analog Input 6 3.12 V
702 07/09/2026 05:54:00 MB-L3-01Mainboard Lantai 3 L3-RAD-02 Radiation 2 1.00 W/m²
703 07/09/2026 05:54:00 MB-L3-01Mainboard Lantai 3 L3-AI-04 Analog Input 4 3.12 V
704 07/09/2026 05:54:00 MB-L5-01Mainboard Lantai 5 L5-SHT-02-RH SHT20 2 Humidity 46.80 %RH
705 07/09/2026 05:54:00 MB-L3-01Mainboard Lantai 3 L3-LUX-03 Illuminance / LUX 3 43.70 lux
706 07/09/2026 05:54:00 AC-REMOTE-01Remote AC AC-POWER AC Power State 1.00 state
707 07/09/2026 05:54:00 MB-L3-01Mainboard Lantai 3 L3-AI-02 Analog Input 2 3.12 V
708 07/09/2026 05:54:00 PWR-L5-02Power Meter L5 PZEM 02 PZEM-L5-02-ENERGY PZEM L5-02 Energy 0.04 kWh
709 07/09/2026 05:54:00 MB-L5-01Mainboard Lantai 5 L5-SHT-02-T SHT20 2 Temperature 28.10 °C
710 07/09/2026 05:54:00 MB-L5-01Mainboard Lantai 5 L5-AI-03 Analog Input 3 3.05 V
711 07/09/2026 05:54:00 MB-L3-01Mainboard Lantai 3 L3-LUX-02 Illuminance / LUX 2 41.50 lux
712 07/09/2026 05:54:00 MB-L5-01Mainboard Lantai 5 L5-HFT-01 Heat Flow Temperature 1 22.30 °C
713 07/09/2026 05:54:00 MB-L5-01Mainboard Lantai 5 L5-SHT-01-RH SHT20 1 Humidity 47.70 %RH
714 07/09/2026 05:54:00 WS-MOD-01Weather Station Module WS-WIND Kecepatan Angin 4.85 m/s
715 07/09/2026 05:54:00 MB-L3-01Mainboard Lantai 3 L3-SHT-02-RH SHT20 2 Humidity 46.70 %RH
716 07/09/2026 05:54:00 PWR-L5-02Power Meter L5 PZEM 02 PZEM-L5-02-PF PZEM L5-02 Power Factor 0.00
717 07/09/2026 05:54:00 MB-L5-01Mainboard Lantai 5 L5-LUX-02 Illuminance / LUX 2 139.00 lux
718 07/09/2026 05:54:00 MB-L3-01Mainboard Lantai 3 L3-LUX-06 Illuminance / LUX 6 87.20 lux
719 07/09/2026 05:54:00 WS-MOD-01Weather Station Module WS-RH Kelembapan Udara 81.50 %RH
720 07/09/2026 05:54:00 MB-L3-01Mainboard Lantai 3 L3-SHT-03-RH SHT20 3 Humidity 46.40 %RH
721 07/09/2026 05:54:00 WS-MOD-01Weather Station Module WS-DIR Arah Angin 52.10 °
722 07/09/2026 05:54:00 MB-L5-01Mainboard Lantai 5 L5-AI-04 Analog Input 4 3.05 V
723 07/09/2026 05:54:00 PWR-L5-02Power Meter L5 PZEM 02 PZEM-L5-02-VOLT PZEM L5-02 Voltage 224.00 V
724 07/09/2026 05:54:00 MB-L5-01Mainboard Lantai 5 L5-HFT-02 Heat Flow Temperature 2 21.50 °C
725 07/09/2026 05:54:00 MB-L5-01Mainboard Lantai 5 L5-BGT-01 Black Globe Temperature 1 25.80 °C
726 07/09/2026 05:54:00 MB-L5-01Mainboard Lantai 5 L5-LUX-05 Illuminance / LUX 5 117.60 lux
727 07/09/2026 05:54:00 MB-L5-01Mainboard Lantai 5 L5-LUX-06 Illuminance / LUX 6 49.90 lux
728 07/09/2026 05:54:00 MB-L3-01Mainboard Lantai 3 L3-RAD-01 Radiation 1 1.00 W/m²
729 07/09/2026 05:54:00 MB-L3-01Mainboard Lantai 3 L3-AI-05 Analog Input 5 3.12 V
730 07/09/2026 05:54:00 MB-L5-01Mainboard Lantai 5 L5-SHT-01-T SHT20 1 Temperature 27.70 °C
731 07/09/2026 05:54:00 PWR-L5-02Power Meter L5 PZEM 02 PZEM-L5-02-POWER PZEM L5-02 Active Power 0.00 W
732 07/09/2026 05:54:00 MB-L3-01Mainboard Lantai 3 L3-LUX-05 Illuminance / LUX 5 129.80 lux
733 07/09/2026 05:54:00 MB-L3-01Mainboard Lantai 3 L3-SHT-01-RH SHT20 1 Humidity 47.50 %RH
734 07/09/2026 05:54:00 MB-L3-01Mainboard Lantai 3 L3-AI-03 Analog Input 3 3.12 V
735 07/09/2026 05:54:00 MB-L5-01Mainboard Lantai 5 L5-BGT-02 Black Globe Temperature 2 25.80 °C
736 07/09/2026 05:54:00 AC-REMOTE-01Remote AC AC-FAN AC Fan Speed 0.00 code
737 07/09/2026 05:54:00 MB-L5-01Mainboard Lantai 5 L5-AI-05 Analog Input 5 3.05 V
738 07/09/2026 05:54:00 MB-L3-01Mainboard Lantai 3 L3-AI-01 Analog Input 1 3.12 V
739 07/09/2026 05:54:00 MB-L5-01Mainboard Lantai 5 L5-RAD-02 Radiation 2 1.00 W/m²
740 07/09/2026 05:54:00 PWR-L5-02Power Meter L5 PZEM 02 PZEM-L5-02-FREQ PZEM L5-02 Frequency 50.00 Hz
741 07/09/2026 05:54:00 MB-L3-01Mainboard Lantai 3 L3-LUX-04 Illuminance / LUX 4 23.20 lux
742 07/09/2026 05:54:00 MB-L5-01Mainboard Lantai 5 L5-SHT-03-RH SHT20 3 Humidity 47.30 %RH
743 07/09/2026 05:54:00 MB-L3-01Mainboard Lantai 3 L3-SHT-01-T SHT20 1 Temperature 27.60 °C
744 07/09/2026 05:54:00 MB-L5-01Mainboard Lantai 5 L5-LUX-01 Illuminance / LUX 1 29.30 lux
745 07/09/2026 05:54:00 MB-L5-01Mainboard Lantai 5 L5-AI-01 Analog Input 1 3.05 V
746 07/09/2026 05:54:00 WS-MOD-01Weather Station Module WS-TEMP Suhu Udara 18.10 °C
747 07/09/2026 05:54:00 MB-L3-01Mainboard Lantai 3 L3-SHT-03-T SHT20 3 Temperature 28.20 °C
748 07/09/2026 05:54:00 AC-REMOTE-01Remote AC AC-MODE AC Operating Mode 1.00 code
749 07/09/2026 05:54:00 PWR-L5-01Power Meter L5 PZEM 01 PZEM-L5-01-POWER PZEM L5-01 Active Power 10.00 W
750 07/09/2026 05:54:00 MB-L5-01Mainboard Lantai 5 L5-ST-01 Surface Temperature 1 22.40 °C
751 07/09/2026 05:54:00 PWR-L5-01Power Meter L5 PZEM 01 PZEM-L5-01-FREQ PZEM L5-01 Frequency 50.00 Hz
752 07/09/2026 05:54:00 MB-L5-01Mainboard Lantai 5 L5-RAD-01 Radiation 1 1.00 W/m²
753 07/09/2026 05:54:00 PWR-L5-01Power Meter L5 PZEM 01 PZEM-L5-01-CURR PZEM L5-01 Current 0.12 A
754 07/09/2026 05:54:00 MB-L5-01Mainboard Lantai 5 L5-BGT-03 Black Globe Temperature 3 25.50 °C
755 07/09/2026 05:54:00 PWR-L5-01Power Meter L5 PZEM 01 PZEM-L5-01-ENERGY PZEM L5-01 Energy 0.12 kWh
756 07/09/2026 05:54:00 MB-L3-01Mainboard Lantai 3 L3-LUX-01 Illuminance / LUX 1 25.80 lux
757 07/09/2026 05:54:00 PWR-L5-01Power Meter L5 PZEM 01 PZEM-L5-01-PF PZEM L5-01 Power Factor 0.38
758 07/09/2026 05:54:00 MB-L5-01Mainboard Lantai 5 L5-AI-06 Analog Input 6 3.05 V
759 07/09/2026 05:54:00 PWR-L5-01Power Meter L5 PZEM 01 PZEM-L5-01-VOLT PZEM L5-01 Voltage 224.30 V
760 07/09/2026 05:54:00 MB-L5-01Mainboard Lantai 5 L5-LUX-03 Illuminance / LUX 3 47.40 lux
761 07/09/2026 05:54:00 MB-L3-01Mainboard Lantai 3 L3-SHT-02-T SHT20 2 Temperature 27.90 °C
762 07/09/2026 05:54:00 WS-MOD-01Weather Station Module WS-PRES Tekanan Udara 911.00 hPa
763 07/09/2026 05:54:00 MB-L5-01Mainboard Lantai 5 L5-SHT-03-T SHT20 3 Temperature 28.00 °C
764 07/09/2026 05:54:00 AC-REMOTE-01Remote AC AC-SETPOINT AC Set Temperature 23.00 °C
765 07/09/2026 05:54:00 MB-L5-01Mainboard Lantai 5 L5-LUX-04 Illuminance / LUX 4 27.30 lux
766 07/09/2026 05:53:00 MB-L5-01Mainboard Lantai 5 L5-AI-03 Analog Input 3 3.05 V
767 07/09/2026 05:53:00 MB-L3-01Mainboard Lantai 3 L3-LUX-02 Illuminance / LUX 2 37.50 lux
768 07/09/2026 05:53:00 MB-L5-01Mainboard Lantai 5 L5-HFT-01 Heat Flow Temperature 1 22.30 °C
769 07/09/2026 05:53:00 MB-L5-01Mainboard Lantai 5 L5-SHT-01-RH SHT20 1 Humidity 47.70 %RH
770 07/09/2026 05:53:00 WS-MOD-01Weather Station Module WS-WIND Kecepatan Angin 6.57 m/s
771 07/09/2026 05:53:00 MB-L3-01Mainboard Lantai 3 L3-SHT-02-RH SHT20 2 Humidity 46.70 %RH
772 07/09/2026 05:53:00 PWR-L5-02Power Meter L5 PZEM 02 PZEM-L5-02-PF PZEM L5-02 Power Factor 0.00
773 07/09/2026 05:53:00 MB-L5-01Mainboard Lantai 5 L5-LUX-02 Illuminance / LUX 2 125.10 lux
774 07/09/2026 05:53:00 MB-L3-01Mainboard Lantai 3 L3-LUX-06 Illuminance / LUX 6 79.20 lux
775 07/09/2026 05:53:00 WS-MOD-01Weather Station Module WS-RH Kelembapan Udara 81.40 %RH
776 07/09/2026 05:53:00 MB-L3-01Mainboard Lantai 3 L3-SHT-03-RH SHT20 3 Humidity 46.60 %RH
777 07/09/2026 05:53:00 WS-MOD-01Weather Station Module WS-DIR Arah Angin 80.20 °
778 07/09/2026 05:53:00 MB-L5-01Mainboard Lantai 5 L5-AI-04 Analog Input 4 3.05 V
779 07/09/2026 05:53:00 PWR-L5-02Power Meter L5 PZEM 02 PZEM-L5-02-VOLT PZEM L5-02 Voltage 224.20 V
780 07/09/2026 05:53:00 MB-L5-01Mainboard Lantai 5 L5-HFT-02 Heat Flow Temperature 2 21.40 °C
781 07/09/2026 05:53:00 MB-L5-01Mainboard Lantai 5 L5-BGT-01 Black Globe Temperature 1 25.90 °C
782 07/09/2026 05:53:00 MB-L5-01Mainboard Lantai 5 L5-LUX-06 Illuminance / LUX 6 44.90 lux
783 07/09/2026 05:53:00 MB-L3-01Mainboard Lantai 3 L3-RAD-01 Radiation 1 1.00 W/m²
784 07/09/2026 05:53:00 MB-L3-01Mainboard Lantai 3 L3-AI-05 Analog Input 5 3.12 V
785 07/09/2026 05:53:00 MB-L5-01Mainboard Lantai 5 L5-SHT-01-T SHT20 1 Temperature 27.70 °C
786 07/09/2026 05:53:00 PWR-L5-02Power Meter L5 PZEM 02 PZEM-L5-02-POWER PZEM L5-02 Active Power 0.00 W
787 07/09/2026 05:53:00 MB-L3-01Mainboard Lantai 3 L3-LUX-05 Illuminance / LUX 5 117.40 lux
788 07/09/2026 05:53:00 MB-L3-01Mainboard Lantai 3 L3-SHT-01-RH SHT20 1 Humidity 47.50 %RH
789 07/09/2026 05:53:00 MB-L3-01Mainboard Lantai 3 L3-AI-03 Analog Input 3 3.12 V
790 07/09/2026 05:53:00 MB-L5-01Mainboard Lantai 5 L5-BGT-02 Black Globe Temperature 2 25.80 °C
791 07/09/2026 05:53:00 AC-REMOTE-01Remote AC AC-FAN AC Fan Speed 0.00 code
792 07/09/2026 05:53:00 MB-L5-01Mainboard Lantai 5 L5-AI-05 Analog Input 5 3.05 V
793 07/09/2026 05:53:00 MB-L3-01Mainboard Lantai 3 L3-AI-01 Analog Input 1 3.12 V
794 07/09/2026 05:53:00 MB-L5-01Mainboard Lantai 5 L5-RAD-02 Radiation 2 1.00 W/m²
795 07/09/2026 05:53:00 PWR-L5-02Power Meter L5 PZEM 02 PZEM-L5-02-FREQ PZEM L5-02 Frequency 50.00 Hz
796 07/09/2026 05:53:00 MB-L3-01Mainboard Lantai 3 L3-LUX-04 Illuminance / LUX 4 21.00 lux
797 07/09/2026 05:53:00 MB-L5-01Mainboard Lantai 5 L5-SHT-03-RH SHT20 3 Humidity 47.30 %RH
798 07/09/2026 05:53:00 MB-L3-01Mainboard Lantai 3 L3-SHT-01-T SHT20 1 Temperature 27.70 °C
799 07/09/2026 05:53:00 MB-L5-01Mainboard Lantai 5 L5-LUX-01 Illuminance / LUX 1 26.40 lux
800 07/09/2026 05:53:00 MB-L5-01Mainboard Lantai 5 L5-AI-01 Analog Input 1 3.05 V
Menampilkan maksimal 100 data per halaman